createdAt,value
2023-04-16T00:00:30.411Z,516.7692
2023-04-16T00:01:32.042Z,519.7692
2023-04-16T00:02:33.854Z,517.7692
2023-04-16T00:03:35.551Z,520.0769
2023-04-16T00:04:37.023Z,518.1539
2023-04-16T00:05:38.664Z,515.9231
2023-04-16T00:06:40.293Z,513.1539
2023-04-16T00:07:41.900Z,511.7692
2023-04-16T00:08:43.670Z,516.2308
2023-04-16T00:09:45.203Z,517.3077
2023-04-16T00:10:46.987Z,515.2308
2023-04-16T00:11:48.583Z,514.0000
2023-04-16T00:12:50.255Z,514.4615
2023-04-16T00:13:51.865Z,515.4615
2023-04-16T00:14:53.500Z,517.6923
2023-04-16T00:15:55.229Z,520.7692
2023-04-16T00:16:56.901Z,515.9231
2023-04-16T00:17:58.558Z,513.4615
2023-04-16T00:19:00.184Z,514.6154
2023-04-16T00:20:01.861Z,513.8461
2023-04-16T00:21:03.446Z,515.3846
2023-04-16T00:22:05.102Z,513.5385
2023-04-16T00:23:06.690Z,511.8462
2023-04-16T00:24:08.340Z,512.6154
2023-04-16T00:25:09.983Z,512.5385
2023-04-16T00:26:11.693Z,514.2308
2023-04-16T00:27:13.282Z,517.8461
2023-04-16T00:28:14.927Z,516.2308
2023-04-16T00:29:16.582Z,515.2308
2023-04-16T00:30:18.236Z,513.3077
2023-04-16T00:31:19.977Z,512.5385
2023-04-16T00:32:21.547Z,512.2308
2023-04-16T00:33:23.151Z,511.6154
2023-04-16T00:34:24.803Z,513.8461
2023-04-16T00:35:26.443Z,514.3846
2023-04-16T00:36:28.161Z,514.3846
2023-04-16T00:37:29.740Z,513.4615
2023-04-16T00:38:31.466Z,512.6923
2023-04-16T00:39:33.060Z,516.1539
2023-04-16T00:40:34.743Z,517.4615
2023-04-16T00:41:36.417Z,518.1539
2023-04-16T00:42:38.014Z,516.7692
2023-04-16T00:43:39.662Z,520.4615
2023-04-16T00:44:41.327Z,518.1539
2023-04-16T00:45:42.963Z,522.7692
2023-04-16T00:46:44.753Z,522.3846
2023-04-16T00:47:46.310Z,520.8461
2023-04-16T00:48:47.900Z,520.6154
2023-04-16T00:49:49.545Z,521.9231
2023-04-16T00:50:51.199Z,520.3077
2023-04-16T00:51:52.863Z,519.9231
2023-04-16T00:52:54.476Z,520.3077
2023-04-16T00:53:56.149Z,519.6923
2023-04-16T00:54:57.766Z,518.8461
2023-04-16T00:55:59.459Z,518.7692
2023-04-16T00:57:01.083Z,519.7692
2023-04-16T00:58:02.749Z,520.3077
2023-04-16T00:59:04.443Z,518.7692
2023-04-16T01:00:06.111Z,518.2308
2023-04-16T01:01:07.845Z,519.9231
2023-04-16T01:02:09.441Z,523.4615
2023-04-16T01:03:11.116Z,520.9231
2023-04-16T01:04:12.753Z,517.3846
2023-04-16T01:05:14.287Z,517.0769
2023-04-16T01:06:15.918Z,514.8461
2023-04-16T01:07:17.565Z,516.1539
2023-04-16T01:08:19.219Z,516.5385
2023-04-16T01:09:20.845Z,515.4615
2023-04-16T01:10:22.487Z,519.6923
2023-04-16T01:11:24.165Z,519.3846
2023-04-16T01:12:25.773Z,519.0769
2023-04-16T01:13:27.411Z,520.3077
2023-04-16T01:14:29.043Z,521.3077
2023-04-16T01:15:30.727Z,523.0769
2023-04-16T01:16:32.408Z,527.8461
2023-04-16T01:17:34.058Z,527.0000
2023-04-16T01:18:35.688Z,523.9231
2023-04-16T01:19:37.285Z,522.9231
2023-04-16T01:20:38.964Z,519.8461
2023-04-16T01:21:40.607Z,515.3846
2023-04-16T01:22:42.244Z,516.4615
2023-04-16T01:23:43.904Z,518.5385
2023-04-16T01:24:45.534Z,518.6923
2023-04-16T01:25:47.208Z,518.1539
2023-04-16T01:26:48.848Z,516.6923
2023-04-16T01:27:50.474Z,517.8461
2023-04-16T01:28:52.126Z,519.9231
2023-04-16T01:29:53.768Z,517.3846
2023-04-16T01:30:55.536Z,514.5385
2023-04-16T01:31:57.061Z,515.9231
2023-04-16T01:32:58.719Z,516.0769
2023-04-16T01:34:00.331Z,515.9231
2023-04-16T01:35:02.166Z,514.3846
2023-04-16T01:36:03.636Z,512.8461
2023-04-16T01:37:05.305Z,512.6154
2023-04-16T01:38:06.905Z,512.3077
2023-04-16T01:39:08.737Z,511.1538
2023-04-16T01:40:10.189Z,512.8461
2023-04-16T01:41:11.848Z,513.7692
2023-04-16T01:42:13.543Z,515.8461
2023-04-16T01:43:15.162Z,518.7692
2023-04-16T01:44:16.766Z,518.0000
2023-04-16T01:45:18.464Z,518.0000
2023-04-16T01:46:20.145Z,517.6154
2023-04-16T01:47:21.788Z,518.8461
2023-04-16T01:48:23.366Z,517.7692
2023-04-16T01:49:24.992Z,517.3077
2023-04-16T01:50:26.677Z,516.9231
2023-04-16T01:51:28.281Z,518.3077
2023-04-16T01:52:29.986Z,518.7692
2023-04-16T01:53:31.649Z,513.7692
2023-04-16T01:54:33.324Z,513.8461
2023-04-16T01:55:34.914Z,516.2308
2023-04-16T01:56:36.566Z,515.3846
2023-04-16T01:57:38.287Z,517.3077
2023-04-16T01:58:39.865Z,521.2308
2023-04-16T01:59:41.486Z,522.3077
2023-04-16T02:00:43.264Z,521.8461
2023-04-16T02:01:44.820Z,523.6923
2023-04-16T02:02:46.702Z,522.6154
2023-04-16T02:03:48.236Z,520.2308
2023-04-16T02:04:49.801Z,518.0769
2023-04-16T02:05:51.383Z,519.6923
2023-04-16T02:06:53.075Z,517.1539
2023-04-16T02:07:54.692Z,515.4615
2023-04-16T02:08:56.306Z,513.3077
2023-04-16T02:09:57.941Z,512.1539
2023-04-16T02:10:59.572Z,512.5385
2023-04-16T02:12:01.225Z,511.9231
2023-04-16T02:13:02.909Z,514.2308
2023-04-16T02:14:04.536Z,516.8461
2023-04-16T02:15:06.181Z,520.1539
2023-04-16T02:16:07.829Z,521.3077
2023-04-16T02:17:09.443Z,520.9231
2023-04-16T02:18:11.157Z,519.4615
2023-04-16T02:19:12.810Z,521.0000
2023-04-16T02:20:14.429Z,520.9231
2023-04-16T02:21:16.041Z,521.0000
2023-04-16T02:22:17.692Z,518.1539
2023-04-16T02:23:19.405Z,515.3846
2023-04-16T02:24:20.980Z,512.7692
2023-04-16T02:25:22.623Z,513.0769
2023-04-16T02:26:24.329Z,512.9231
2023-04-16T02:27:25.920Z,515.6923
2023-04-16T02:28:27.599Z,516.8461
2023-04-16T02:29:29.184Z,518.6154
2023-04-16T02:30:30.849Z,522.4615
2023-04-16T02:31:32.514Z,522.9231
2023-04-16T02:32:34.186Z,524.0000
2023-04-16T02:33:35.833Z,522.9231
2023-04-16T02:34:37.461Z,523.1539
2023-04-16T02:35:39.131Z,523.6154
2023-04-16T02:36:40.728Z,524.7692
2023-04-16T02:37:42.372Z,525.2308
2023-04-16T02:38:44.131Z,525.6923
2023-04-16T02:39:45.708Z,526.4615
2023-04-16T02:40:47.345Z,529.0000
2023-04-16T02:41:48.963Z,528.3846
2023-04-16T02:42:50.630Z,528.0000
2023-04-16T02:43:52.301Z,528.3846
2023-04-16T02:44:53.918Z,527.9231
2023-04-16T02:45:55.538Z,527.3077
2023-04-16T02:46:57.122Z,525.3846
2023-04-16T02:47:58.820Z,525.2308
2023-04-16T02:49:00.464Z,525.0000
2023-04-16T02:50:02.049Z,525.2308
2023-04-16T02:51:03.714Z,522.6154
2023-04-16T02:52:05.393Z,525.0000
2023-04-16T02:53:07.022Z,523.8461
2023-04-16T02:54:08.695Z,523.5385
2023-04-16T02:55:10.324Z,523.2308
2023-04-16T02:56:11.955Z,524.6923
2023-04-16T02:57:13.631Z,526.3846
2023-04-16T02:58:15.230Z,526.8461
2023-04-16T02:59:16.913Z,526.9231
2023-04-16T03:00:18.547Z,526.4615
2023-04-16T03:01:20.214Z,524.4615
2023-04-16T03:02:22.272Z,521.9231
2023-04-16T03:03:23.526Z,523.0769
2023-04-16T03:04:25.169Z,525.7692
2023-04-16T03:05:26.790Z,526.8461
2023-04-16T03:06:28.429Z,530.1539
2023-04-16T03:07:30.133Z,521.3846
2023-04-16T03:08:31.690Z,521.0769
2023-04-16T03:09:33.390Z,522.6923
2023-04-16T03:10:35.029Z,524.6154
2023-04-16T03:11:36.671Z,525.6923
2023-04-16T03:12:38.313Z,526.0769
2023-04-16T03:13:39.977Z,521.4615
2023-04-16T03:14:41.670Z,521.0000
2023-04-16T03:15:43.280Z,516.9231
2023-04-16T03:16:44.962Z,518.0769
2023-04-16T03:17:46.591Z,521.3846
2023-04-16T03:18:48.175Z,522.7692
2023-04-16T03:19:49.874Z,525.4615
2023-04-16T03:20:51.468Z,525.5385
2023-04-16T03:21:53.140Z,525.5385
2023-04-16T03:22:54.799Z,525.8461
2023-04-16T03:23:56.438Z,525.4615
2023-04-16T03:24:58.115Z,527.0000
2023-04-16T03:25:59.733Z,529.4615
2023-04-16T03:27:01.381Z,530.3846
2023-04-16T03:28:03.013Z,530.6154
2023-04-16T03:29:04.672Z,529.1539
2023-04-16T03:30:06.338Z,526.9231
2023-04-16T03:31:07.965Z,525.9231
2023-04-16T03:32:09.638Z,526.3846
2023-04-16T03:33:11.417Z,526.2308
2023-04-16T03:34:12.929Z,526.9231
2023-04-16T03:35:14.604Z,527.5385
2023-04-16T03:36:16.280Z,529.4615
2023-04-16T03:37:17.918Z,530.6154
2023-04-16T03:38:19.567Z,528.3077
2023-04-16T03:39:21.282Z,528.5385
2023-04-16T03:40:22.962Z,528.6154
2023-04-16T03:41:24.540Z,529.0000
2023-04-16T03:42:26.231Z,525.0000
2023-04-16T03:43:27.866Z,523.9231
2023-04-16T03:44:29.481Z,525.4615
2023-04-16T03:45:31.233Z,527.7692
2023-04-16T03:46:32.852Z,527.9231
2023-04-16T03:47:34.463Z,527.0769
2023-04-16T03:48:36.172Z,524.0769
2023-04-16T03:49:37.732Z,525.0000
2023-04-16T03:50:39.496Z,530.5385
2023-04-16T03:51:41.052Z,528.3077
2023-04-16T03:52:42.684Z,525.5385
2023-04-16T03:53:44.322Z,524.2308
2023-04-16T03:54:46.021Z,524.4615
2023-04-16T03:55:47.683Z,524.3077
2023-04-16T03:56:49.275Z,524.1539
2023-04-16T03:57:50.933Z,522.5385
2023-04-16T03:58:52.576Z,522.3846
2023-04-16T03:59:54.215Z,522.5385
2023-04-16T04:00:55.918Z,521.4615
2023-04-16T04:01:57.712Z,522.1539
2023-04-16T04:02:59.305Z,522.6923
2023-04-16T04:04:00.971Z,522.0000
2023-04-16T04:05:02.631Z,518.6154
2023-04-16T04:06:04.150Z,519.1539
2023-04-16T04:07:05.780Z,519.0769
2023-04-16T04:08:07.416Z,519.6154
2023-04-16T04:09:09.281Z,520.3077
2023-04-16T04:10:10.718Z,525.2308
2023-04-16T04:11:12.443Z,525.7692
2023-04-16T04:12:14.018Z,525.8461
2023-04-16T04:13:15.655Z,527.3077
2023-04-16T04:14:17.297Z,527.3077
2023-04-16T04:15:18.935Z,527.1539
2023-04-16T04:16:20.665Z,528.4615
2023-04-16T04:17:22.340Z,528.4615
2023-04-16T04:18:23.855Z,526.6923
2023-04-16T04:19:25.542Z,526.4615
2023-04-16T04:20:27.188Z,526.0769
2023-04-16T04:21:28.887Z,525.6154
2023-04-16T04:22:30.478Z,522.1539
2023-04-16T04:23:32.144Z,521.3846
2023-04-16T04:24:33.811Z,522.9231
2023-04-16T04:25:35.432Z,525.6923
2023-04-16T04:26:37.226Z,528.5385
2023-04-16T04:27:38.738Z,526.0000
2023-04-16T04:28:40.310Z,525.8461
2023-04-16T04:29:41.941Z,524.0769
2023-04-16T04:30:43.625Z,522.5385
2023-04-16T04:31:45.358Z,522.6923
2023-04-16T04:32:46.940Z,523.6154
2023-04-16T04:33:48.565Z,526.8461
2023-04-16T04:34:50.386Z,528.3077
2023-04-16T04:35:51.828Z,523.0769
2023-04-16T04:36:53.521Z,526.4615
2023-04-16T04:37:55.142Z,527.2308
2023-04-16T04:38:56.808Z,526.8461
2023-04-16T04:39:58.425Z,526.6923
2023-04-16T04:41:00.148Z,530.1539
2023-04-16T04:42:01.820Z,530.5385
2023-04-16T04:43:03.397Z,527.9231
2023-04-16T04:44:05.024Z,530.6923
2023-04-16T04:45:06.687Z,528.3077
2023-04-16T04:46:08.417Z,526.7692
2023-04-16T04:47:10.000Z,526.2308
2023-04-16T04:48:11.601Z,527.4615
2023-04-16T04:49:13.262Z,531.6923
2023-04-16T04:50:14.893Z,532.3077
2023-04-16T04:51:16.545Z,531.9231
2023-04-16T04:52:18.209Z,533.6923
2023-04-16T04:53:19.827Z,532.3077
2023-04-16T04:54:21.464Z,527.1539
2023-04-16T04:55:23.121Z,523.3077
2023-04-16T04:56:24.762Z,526.4615
2023-04-16T04:57:26.442Z,528.4615
2023-04-16T04:58:28.061Z,528.3846
2023-04-16T04:59:29.721Z,528.8461
2023-04-16T05:00:31.366Z,527.6923
2023-04-16T05:01:33.190Z,525.7692
2023-04-16T05:02:34.895Z,526.4615
2023-04-16T05:03:37.207Z,524.5385
2023-04-16T05:04:38.118Z,525.9231
2023-04-16T05:05:39.738Z,522.4615
2023-04-16T05:06:41.430Z,524.5385
2023-04-16T05:07:43.064Z,526.9231
2023-04-16T05:08:44.677Z,525.9231
2023-04-16T05:09:46.332Z,522.6154
2023-04-16T05:10:47.953Z,519.2308
2023-04-16T05:11:49.596Z,519.6154
2023-04-16T05:12:51.302Z,519.7692
2023-04-16T05:13:52.975Z,522.7692
2023-04-16T05:14:54.592Z,524.5385
2023-04-16T05:15:56.212Z,523.1539
2023-04-16T05:16:57.941Z,522.6154
2023-04-16T05:17:59.602Z,519.7692
2023-04-16T05:19:01.195Z,521.9231
2023-04-16T05:20:02.789Z,521.3077
2023-04-16T05:21:04.444Z,521.9231
2023-04-16T05:22:06.072Z,521.3077
2023-04-16T05:23:07.765Z,518.6154
2023-04-16T05:24:09.328Z,516.6154
2023-04-16T05:25:10.969Z,515.6923
2023-04-16T05:26:12.604Z,519.0769
2023-04-16T05:27:14.243Z,519.4615
2023-04-16T05:28:15.899Z,520.0000
2023-04-16T05:29:17.539Z,520.9231
2023-04-16T05:30:19.176Z,521.0000
2023-04-16T05:31:20.971Z,522.0769
2023-04-16T05:32:22.504Z,520.3846
2023-04-16T05:33:24.144Z,517.0769
2023-04-16T05:34:25.772Z,516.6923
2023-04-16T05:35:27.412Z,516.3077
2023-04-16T05:36:29.131Z,521.0769
2023-04-16T05:37:30.773Z,521.0769
2023-04-16T05:38:32.497Z,521.4615
2023-04-16T05:39:34.056Z,515.6923
2023-04-16T05:40:35.634Z,515.5385
2023-04-16T05:41:37.283Z,515.5385
2023-04-16T05:42:38.911Z,516.8461
2023-04-16T05:43:40.621Z,518.7692
2023-04-16T05:44:42.240Z,518.8461
2023-04-16T05:45:43.876Z,516.5385
2023-04-16T05:46:45.520Z,514.2308
2023-04-16T05:47:47.230Z,514.6154
2023-04-16T05:48:48.831Z,514.8461
2023-04-16T05:49:50.426Z,515.8461
2023-04-16T05:50:52.089Z,516.5385
2023-04-16T05:51:53.747Z,516.3077
2023-04-16T05:52:55.388Z,516.9231
2023-04-16T05:53:57.069Z,517.4615
2023-04-16T05:54:58.690Z,517.3077
2023-04-16T05:56:00.372Z,517.3077
2023-04-16T05:57:02.036Z,515.0769
2023-04-16T05:58:03.648Z,514.1539
2023-04-16T05:59:05.310Z,516.1539
2023-04-16T06:00:07.017Z,517.0769
2023-04-16T06:01:08.615Z,517.4615
2023-04-16T06:02:10.243Z,516.9231
2023-04-16T06:03:12.041Z,514.6923
2023-04-16T06:04:13.891Z,515.4615
2023-04-16T06:05:15.281Z,515.8461
2023-04-16T06:06:16.830Z,514.2308
2023-04-16T06:07:18.458Z,517.1539
2023-04-16T06:08:20.114Z,519.1539
2023-04-16T06:09:21.827Z,519.6154
2023-04-16T06:10:23.387Z,517.3077
2023-04-16T06:11:24.996Z,516.3846
2023-04-16T06:12:26.656Z,514.6154
2023-04-16T06:13:28.300Z,517.3077
2023-04-16T06:14:29.961Z,516.1539
2023-04-16T06:15:31.590Z,515.6154
2023-04-16T06:16:33.364Z,513.8461
2023-04-16T06:17:34.937Z,511.4615
2023-04-16T06:18:36.501Z,517.2308
2023-04-16T06:19:38.177Z,516.6923
2023-04-16T06:20:39.818Z,516.7692
2023-04-16T06:21:41.458Z,517.4615
2023-04-16T06:22:43.097Z,514.9231
2023-04-16T06:23:44.770Z,518.0000
2023-04-16T06:24:46.456Z,520.3846
2023-04-16T06:25:48.038Z,521.3846
2023-04-16T06:26:49.701Z,519.9231
2023-04-16T06:27:51.374Z,518.4615
2023-04-16T06:28:52.993Z,514.3077
2023-04-16T06:29:54.688Z,516.6154
2023-04-16T06:30:56.278Z,518.2308
2023-04-16T06:31:57.894Z,517.7692
2023-04-16T06:32:59.578Z,513.3846
2023-04-16T06:34:01.257Z,511.6154
2023-04-16T06:35:03.017Z,513.0769
2023-04-16T06:36:04.524Z,511.5385
2023-04-16T06:37:07.184Z,512.8461
2023-04-16T06:38:07.825Z,514.2308
2023-04-16T06:39:09.804Z,516.1539
2023-04-16T06:40:11.129Z,512.8461
2023-04-16T06:41:12.734Z,511.6154
2023-04-16T06:42:14.403Z,509.9231
2023-04-16T06:43:16.021Z,510.3077
2023-04-16T06:44:17.691Z,511.6923
2023-04-16T06:45:19.350Z,512.4615
2023-04-16T06:46:20.999Z,513.4615
2023-04-16T06:47:22.725Z,514.3846
2023-04-16T06:48:24.340Z,511.6923
2023-04-16T06:49:25.948Z,511.0000
2023-04-16T06:50:27.648Z,512.3846
2023-04-16T06:51:29.242Z,514.0769
2023-04-16T06:52:30.899Z,514.8461
2023-04-16T06:53:32.523Z,514.3077
2023-04-16T06:54:34.162Z,514.0000
2023-04-16T06:55:35.849Z,516.4615
2023-04-16T06:56:37.435Z,518.3846
2023-04-16T06:57:39.074Z,519.3077
2023-04-16T06:58:40.735Z,518.0000
2023-04-16T06:59:42.425Z,515.3846
2023-04-16T07:00:44.141Z,513.1539
2023-04-16T07:01:45.723Z,514.5385
2023-04-16T07:02:47.512Z,515.6923
2023-04-16T07:03:49.206Z,512.6154
2023-04-16T07:04:50.599Z,511.8462
2023-04-16T07:05:52.280Z,514.0000
2023-04-16T07:06:53.885Z,513.2308
2023-04-16T07:07:55.513Z,511.0769
2023-04-16T07:08:57.185Z,511.0000
2023-04-16T07:09:58.814Z,514.2308
2023-04-16T07:11:00.486Z,514.9231
2023-04-16T07:12:02.090Z,515.3077
2023-04-16T07:13:03.750Z,513.0000
2023-04-16T07:14:05.394Z,513.3846
2023-04-16T07:15:07.025Z,515.6154
2023-04-16T07:16:08.793Z,511.7692
2023-04-16T07:17:10.364Z,510.6923
2023-04-16T07:18:12.005Z,512.4615
2023-04-16T07:19:13.608Z,514.5385
2023-04-16T07:20:15.272Z,514.5385
2023-04-16T07:21:16.951Z,512.1539
2023-04-16T07:22:18.581Z,513.3846
2023-04-16T07:23:20.201Z,515.3846
2023-04-16T07:24:21.860Z,514.7692
2023-04-16T07:25:23.548Z,516.3077
2023-04-16T07:26:25.173Z,513.6923
2023-04-16T07:27:26.787Z,511.0769
2023-04-16T07:28:28.514Z,511.4615
2023-04-16T07:29:30.108Z,513.7692
2023-04-16T07:30:31.710Z,513.0000
2023-04-16T07:31:33.348Z,514.4615
2023-04-16T07:32:35.038Z,512.3846
2023-04-16T07:33:36.566Z,510.4615
2023-04-16T07:34:38.317Z,511.8462
2023-04-16T07:35:39.862Z,515.4615
2023-04-16T07:36:41.549Z,515.8461
2023-04-16T07:37:43.150Z,513.3846
2023-04-16T07:38:44.829Z,511.3077
2023-04-16T07:39:46.465Z,507.9231
2023-04-16T07:40:48.094Z,506.1538
2023-04-16T07:41:49.803Z,510.4615
2023-04-16T07:42:51.391Z,513.9231
2023-04-16T07:43:53.038Z,512.8461
2023-04-16T07:44:54.695Z,514.0000
2023-04-16T07:45:56.468Z,512.0000
2023-04-16T07:46:58.111Z,513.6154
2023-04-16T07:47:59.880Z,511.1538
2023-04-16T07:49:01.296Z,510.0000
2023-04-16T07:50:02.908Z,512.8461
2023-04-16T07:51:04.593Z,513.3846
2023-04-16T07:52:06.231Z,513.3846
2023-04-16T07:53:07.930Z,512.3077
2023-04-16T07:54:09.502Z,514.9231
2023-04-16T07:55:11.156Z,514.1539
2023-04-16T07:56:12.798Z,513.3077
2023-04-16T07:57:14.463Z,510.2308
2023-04-16T07:58:16.106Z,508.3846
2023-04-16T07:59:23.352Z,508.4615
2023-04-16T08:00:19.384Z,507.3077
2023-04-16T08:01:21.009Z,508.5385
2023-04-16T08:02:22.828Z,513.3846
2023-04-16T08:03:24.636Z,515.4615
2023-04-16T08:04:26.536Z,514.6923
2023-04-16T08:05:27.599Z,513.2308
2023-04-16T08:06:29.222Z,507.8462
2023-04-16T08:07:31.920Z,510.0769
2023-04-16T08:08:32.514Z,510.9231
2023-04-16T08:09:34.178Z,514.7692
2023-04-16T08:10:35.821Z,514.8461
2023-04-16T08:11:37.465Z,513.8461
2023-04-16T08:12:39.131Z,514.6154
2023-04-16T08:13:40.744Z,513.3846
2023-04-16T08:14:42.382Z,508.4615
2023-04-16T08:15:44.062Z,512.3077
2023-04-16T08:16:45.735Z,511.6923
2023-04-16T08:17:47.403Z,509.3846
2023-04-16T08:18:49.172Z,507.3077
2023-04-16T08:19:50.645Z,504.2308
2023-04-16T08:20:52.281Z,503.6923
2023-04-16T08:21:53.900Z,504.5385
2023-04-16T08:22:55.608Z,505.2308
2023-04-16T08:23:57.269Z,505.3846
2023-04-16T08:24:58.864Z,502.0000
2023-04-16T08:26:00.463Z,501.6154
2023-04-16T08:27:11.448Z,500.7692
2023-04-16T08:28:03.816Z,505.3077
2023-04-16T08:29:05.414Z,505.0769
2023-04-16T08:30:07.680Z,502.0000
2023-04-16T08:31:08.783Z,499.2308
2023-04-16T08:32:10.418Z,500.8462
2023-04-16T08:33:12.124Z,496.3077
2023-04-16T08:34:13.681Z,493.4615
2023-04-16T08:35:15.321Z,495.2308
2023-04-16T08:36:16.957Z,497.5385
2023-04-16T08:37:18.608Z,496.6923
2023-04-16T08:38:20.282Z,496.3846
2023-04-16T08:39:21.923Z,495.0000
2023-04-16T08:40:23.520Z,495.8462
2023-04-16T08:41:25.171Z,497.5385
2023-04-16T08:42:26.878Z,499.1538
2023-04-16T08:43:28.481Z,499.6154
2023-04-16T08:44:30.101Z,498.7692
2023-04-16T08:45:31.743Z,498.0769
2023-04-16T08:46:33.423Z,498.4615
2023-04-16T08:47:35.057Z,499.0769
2023-04-16T08:48:36.707Z,497.8462
2023-04-16T08:49:38.308Z,495.0000
2023-04-16T08:50:39.954Z,492.3846
2023-04-16T08:51:41.605Z,491.3846
2023-04-16T08:52:43.256Z,488.2308
2023-04-16T08:53:44.927Z,488.0769
2023-04-16T08:54:46.527Z,489.6154
2023-04-16T08:55:48.192Z,489.3846
2023-04-16T08:56:49.822Z,492.0000
2023-04-16T08:57:51.464Z,492.1538
2023-04-16T08:58:53.154Z,490.1538
2023-04-16T08:59:54.762Z,491.3077
2023-04-16T09:00:56.405Z,491.4615
2023-04-16T09:01:58.249Z,494.5385
2023-04-16T09:02:59.777Z,492.7692
2023-04-16T09:04:01.685Z,487.1538
2023-04-16T09:05:03.127Z,486.5385
2023-04-16T09:06:04.686Z,485.9231
2023-04-16T09:07:06.347Z,486.9231
2023-04-16T09:08:08.006Z,485.7692
2023-04-16T09:09:10.095Z,486.8462
2023-04-16T09:10:11.298Z,487.0769
2023-04-16T09:11:12.952Z,488.0000
2023-04-16T09:12:14.553Z,488.9231
2023-04-16T09:13:16.195Z,488.7692
2023-04-16T09:14:17.878Z,488.6154
2023-04-16T09:15:19.461Z,488.1538
2023-04-16T09:16:21.099Z,486.0000
2023-04-16T09:17:22.796Z,487.6154
2023-04-16T09:18:24.345Z,487.0000
2023-04-16T09:19:26.052Z,486.4615
2023-04-16T09:20:27.661Z,487.9231
2023-04-16T09:21:29.289Z,485.3077
2023-04-16T09:22:30.898Z,486.6154
2023-04-16T09:23:32.576Z,487.8462
2023-04-16T09:24:34.218Z,485.6923
2023-04-16T09:25:35.836Z,484.3077
2023-04-16T09:26:37.474Z,482.8462
2023-04-16T09:27:39.160Z,480.4615
2023-04-16T09:28:40.756Z,479.8462
2023-04-16T09:29:42.447Z,479.0000
2023-04-16T09:30:44.055Z,479.7692
2023-04-16T09:31:45.742Z,481.4615
2023-04-16T09:32:47.367Z,484.9231
2023-04-16T09:33:48.996Z,483.6923
2023-04-16T09:34:50.696Z,483.3077
2023-04-16T09:35:52.301Z,481.3077
2023-04-16T09:36:53.954Z,478.2308
2023-04-16T09:37:55.584Z,478.8462
2023-04-16T09:38:57.844Z,485.8462
2023-04-16T09:39:58.900Z,490.1538
2023-04-16T09:41:00.503Z,489.7692
2023-04-16T09:42:02.361Z,489.5385
2023-04-16T09:43:03.778Z,488.8462
2023-04-16T09:44:05.523Z,483.4615
2023-04-16T09:45:07.079Z,484.1538
2023-04-16T09:46:08.836Z,485.6923
2023-04-16T09:47:10.348Z,487.8462
2023-04-16T09:48:12.003Z,485.1538
2023-04-16T09:49:13.626Z,485.9231
2023-04-16T09:50:17.722Z,483.2308
2023-04-16T09:51:16.911Z,481.4615
2023-04-16T09:52:18.715Z,482.2308
2023-04-16T09:53:20.207Z,483.3846
2023-04-16T09:54:21.875Z,484.9231
2023-04-16T09:55:23.542Z,488.4615
2023-04-16T09:56:25.132Z,488.5385
2023-04-16T09:57:26.807Z,486.8462
2023-04-16T09:58:28.438Z,483.3846
2023-04-16T09:59:30.199Z,482.0769
2023-04-16T10:00:31.829Z,482.0769
2023-04-16T10:01:33.407Z,484.2308
2023-04-16T10:02:35.077Z,484.6923
2023-04-16T10:03:37.021Z,484.6154
2023-04-16T10:04:38.349Z,485.2308
2023-04-16T10:05:39.986Z,484.7692
2023-04-16T10:06:41.595Z,482.6923
2023-04-16T10:07:43.260Z,481.9231
2023-04-16T10:08:44.892Z,482.7692
2023-04-16T10:09:46.529Z,483.2308
2023-04-16T10:10:48.232Z,483.3846
2023-04-16T10:11:49.810Z,483.0769
2023-04-16T10:12:51.478Z,483.6154
2023-04-16T10:13:53.181Z,484.3077
2023-04-16T10:14:54.822Z,484.2308
2023-04-16T10:15:56.536Z,483.6154
2023-04-16T10:16:58.129Z,486.6154
2023-04-16T10:17:59.846Z,486.8462
2023-04-16T10:19:01.446Z,486.0000
2023-04-16T10:20:03.051Z,485.6154
2023-04-16T10:21:04.728Z,485.3846
2023-04-16T10:22:06.398Z,486.1538
2023-04-16T10:23:07.991Z,484.2308
2023-04-16T10:24:09.638Z,483.6154
2023-04-16T10:25:11.362Z,485.3846
2023-04-16T10:26:12.986Z,484.6923
2023-04-16T10:27:14.558Z,484.0769
2023-04-16T10:28:16.199Z,486.3077
2023-04-16T10:29:17.854Z,484.2308
2023-04-16T10:30:19.497Z,479.1538
2023-04-16T10:31:21.253Z,481.3077
2023-04-16T10:32:22.822Z,484.3846
2023-04-16T10:33:24.417Z,485.6154
2023-04-16T10:34:26.039Z,484.8462
2023-04-16T10:35:27.771Z,485.1538
2023-04-16T10:36:29.389Z,487.2308
2023-04-16T10:37:30.974Z,486.3846
2023-04-16T10:38:32.658Z,485.3077
2023-04-16T10:39:34.253Z,486.0000
2023-04-16T10:40:35.935Z,485.3846
2023-04-16T10:41:37.670Z,485.3077
2023-04-16T10:42:39.180Z,484.0000
2023-04-16T10:43:40.838Z,482.7692
2023-04-16T10:44:45.229Z,480.7692
2023-04-16T10:45:44.120Z,482.6154
2023-04-16T10:46:45.809Z,480.1538
2023-04-16T10:47:47.463Z,479.0769
2023-04-16T10:48:50.652Z,481.0769
2023-04-16T10:49:50.694Z,482.3846
2023-04-16T10:50:52.314Z,482.6154
2023-04-16T10:51:54.011Z,481.3077
2023-04-16T10:52:55.595Z,481.5385
2023-04-16T10:53:57.251Z,482.4615
2023-04-16T10:54:58.918Z,483.0769
2023-04-16T10:56:00.509Z,484.3077
2023-04-16T10:57:03.773Z,480.2308
2023-04-16T10:58:03.881Z,479.6154
2023-04-16T10:59:05.426Z,479.3846
2023-04-16T11:00:07.085Z,478.3077
2023-04-16T11:01:08.709Z,477.0769
2023-04-16T11:02:10.583Z,473.4615
2023-04-16T11:03:12.125Z,476.5385
2023-04-16T11:04:13.713Z,477.6923
2023-04-16T11:05:15.267Z,476.1538
2023-04-16T11:06:16.899Z,473.5385
2023-04-16T11:07:18.576Z,473.9231
2023-04-16T11:08:20.107Z,476.0000
2023-04-16T11:09:21.708Z,476.0000
2023-04-16T11:10:23.387Z,479.0000
2023-04-16T11:11:25.242Z,478.1538
2023-04-16T11:12:26.674Z,475.2308
2023-04-16T11:13:28.292Z,476.3077
2023-04-16T11:14:29.911Z,475.4615
2023-04-16T11:15:31.529Z,474.6923
2023-04-16T11:16:33.356Z,475.3846
2023-04-16T11:17:34.901Z,475.6923
2023-04-16T11:18:36.492Z,475.0000
2023-04-16T11:19:38.122Z,473.6923
2023-04-16T11:20:39.757Z,472.4615
2023-04-16T11:21:41.398Z,477.3846
2023-04-16T11:22:43.048Z,475.9231
2023-04-16T11:23:44.692Z,477.5385
2023-04-16T11:24:46.354Z,477.7692
2023-04-16T11:25:47.990Z,479.6154
2023-04-16T11:26:49.622Z,478.9231
2023-04-16T11:27:51.325Z,478.2308
2023-04-16T11:28:52.915Z,476.1538
2023-04-16T11:29:54.555Z,475.3846
2023-04-16T11:30:56.238Z,477.2308
2023-04-16T11:31:57.836Z,474.9231
2023-04-16T11:32:59.555Z,473.1538
2023-04-16T11:34:01.142Z,474.4615
2023-04-16T11:35:02.794Z,476.6923
2023-04-16T11:36:04.424Z,476.4615
2023-04-16T11:37:06.092Z,477.6923
2023-04-16T11:38:07.805Z,478.0769
2023-04-16T11:39:09.632Z,476.7692
2023-04-16T11:40:10.995Z,476.6923
2023-04-16T11:41:12.630Z,476.7692
2023-04-16T11:42:14.376Z,476.6154
2023-04-16T11:43:15.942Z,476.9231
2023-04-16T11:44:17.704Z,479.5385
2023-04-16T11:45:19.246Z,476.8462
2023-04-16T11:46:27.466Z,474.6923
2023-04-16T11:47:22.586Z,471.9231
2023-04-16T11:48:24.162Z,470.8462
2023-04-16T11:49:25.763Z,473.3846
2023-04-16T11:50:27.431Z,474.1538
2023-04-16T11:51:29.044Z,476.5385
2023-04-16T11:52:30.707Z,474.7692
2023-04-16T11:53:32.378Z,476.6154
2023-04-16T11:54:34.006Z,479.0769
2023-04-16T11:55:35.632Z,480.7692
2023-04-16T11:56:37.293Z,479.2308
2023-04-16T11:57:38.906Z,479.5385
2023-04-16T11:58:42.445Z,482.7692
2023-04-16T12:00:02.610Z,483.6154
2023-04-16T12:00:43.866Z,482.4615
2023-04-16T12:01:45.532Z,482.3077
2023-04-16T12:02:47.280Z,481.5385
2023-04-16T12:03:49.073Z,480.2308